sensor_id;sensor_type;location;lat;lon;timestamp;P1;durP1;ratioP1;P2;durP2;ratioP2
69588;SDS011;56792;50.644;17.984;2023-05-10T00:01:33;9.80;;;4.30;;
69588;SDS011;56792;50.644;17.984;2023-05-10T00:04:01;7.50;;;4.30;;
69588;SDS011;56792;50.644;17.984;2023-05-10T00:06:30;9.00;;;4.20;;
69588;SDS011;56792;50.644;17.984;2023-05-10T00:08:59;7.30;;;3.60;;
69588;SDS011;56792;50.644;17.984;2023-05-10T00:11:27;7.60;;;4.10;;
69588;SDS011;56792;50.644;17.984;2023-05-10T00:13:55;7.60;;;3.90;;
69588;SDS011;56792;50.644;17.984;2023-05-10T00:16:23;10.30;;;4.50;;
69588;SDS011;56792;50.644;17.984;2023-05-10T00:18:51;7.40;;;4.00;;
69588;SDS011;56792;50.644;17.984;2023-05-10T00:21:20;7.90;;;4.30;;
69588;SDS011;56792;50.644;17.984;2023-05-10T00:23:48;6.20;;;3.90;;
69588;SDS011;56792;50.644;17.984;2023-05-10T00:26:16;7.90;;;4.70;;
69588;SDS011;56792;50.644;17.984;2023-05-10T00:28:45;7.10;;;4.10;;
69588;SDS011;56792;50.644;17.984;2023-05-10T00:31:13;8.90;;;4.10;;
69588;SDS011;56792;50.644;17.984;2023-05-10T00:33:42;8.00;;;4.30;;
69588;SDS011;56792;50.644;17.984;2023-05-10T00:36:10;10.60;;;4.80;;
69588;SDS011;56792;50.644;17.984;2023-05-10T00:38:38;9.00;;;4.10;;
69588;SDS011;56792;50.644;17.984;2023-05-10T00:41:07;8.60;;;4.80;;
69588;SDS011;56792;50.644;17.984;2023-05-10T00:43:36;9.20;;;4.50;;
69588;SDS011;56792;50.644;17.984;2023-05-10T00:46:04;8.10;;;4.40;;
69588;SDS011;56792;50.644;17.984;2023-05-10T00:48:33;9.50;;;4.20;;
69588;SDS011;56792;50.644;17.984;2023-05-10T00:51:02;7.80;;;4.30;;
69588;SDS011;56792;50.644;17.984;2023-05-10T00:53:32;7.10;;;4.20;;
69588;SDS011;56792;50.644;17.984;2023-05-10T00:56:01;9.60;;;4.40;;
69588;SDS011;56792;50.644;17.984;2023-05-10T00:58:30;9.40;;;4.60;;
69588;SDS011;56792;50.644;17.984;2023-05-10T01:00:59;10.00;;;4.70;;
69588;SDS011;56792;50.644;17.984;2023-05-10T01:03:28;10.30;;;4.40;;
69588;SDS011;56792;50.644;17.984;2023-05-10T01:05:57;8.40;;;4.30;;
69588;SDS011;56792;50.644;17.984;2023-05-10T01:08:25;8.30;;;4.40;;
69588;SDS011;56792;50.644;17.984;2023-05-10T01:10:54;8.00;;;4.50;;
69588;SDS011;56792;50.644;17.984;2023-05-10T01:13:32;9.90;;;4.70;;
69588;SDS011;56792;50.644;17.984;2023-05-10T01:16:05;6.90;;;4.20;;
69588;SDS011;56792;50.644;17.984;2023-05-10T01:18:36;7.90;;;4.50;;
69588;SDS011;56792;50.644;17.984;2023-05-10T01:21:17;9.00;;;4.50;;
69588;SDS011;56792;50.644;17.984;2023-05-10T01:24:09;8.90;;;4.20;;
69588;SDS011;56792;50.644;17.984;2023-05-10T01:27:22;6.80;;;4.50;;
69588;SDS011;56792;50.644;17.984;2023-05-10T01:33:11;12.20;;;4.60;;
69588;SDS011;56792;50.644;17.984;2023-05-10T01:35:50;8.80;;;4.70;;
69588;SDS011;56792;50.644;17.984;2023-05-10T01:38:28;9.60;;;4.50;;
69588;SDS011;56792;50.644;17.984;2023-05-10T01:41:07;6.60;;;4.30;;
69588;SDS011;56792;50.644;17.984;2023-05-10T01:43:48;7.30;;;4.30;;
69588;SDS011;56792;50.644;17.984;2023-05-10T01:46:28;7.40;;;4.10;;
69588;SDS011;56792;50.644;17.984;2023-05-10T01:49:03;9.80;;;4.10;;
69588;SDS011;56792;50.644;17.984;2023-05-10T01:51:41;8.00;;;4.40;;
69588;SDS011;56792;50.644;17.984;2023-05-10T01:54:14;8.30;;;4.30;;
69588;SDS011;56792;50.644;17.984;2023-05-10T01:56:49;7.50;;;4.50;;
69588;SDS011;56792;50.644;17.984;2023-05-10T01:59:22;8.20;;;4.60;;
69588;SDS011;56792;50.644;17.984;2023-05-10T02:01:56;8.00;;;4.50;;
69588;SDS011;56792;50.644;17.984;2023-05-10T02:04:27;9.50;;;4.30;;
69588;SDS011;56792;50.644;17.984;2023-05-10T02:06:56;8.20;;;4.60;;
69588;SDS011;56792;50.644;17.984;2023-05-10T02:09:26;9.50;;;4.60;;
69588;SDS011;56792;50.644;17.984;2023-05-10T02:11:57;9.30;;;4.60;;
69588;SDS011;56792;50.644;17.984;2023-05-10T02:14:28;9.80;;;4.90;;
69588;SDS011;56792;50.644;17.984;2023-05-10T02:16:59;8.90;;;4.60;;
69588;SDS011;56792;50.644;17.984;2023-05-10T02:19:28;6.90;;;4.30;;
69588;SDS011;56792;50.644;17.984;2023-05-10T02:21:59;7.90;;;4.50;;
69588;SDS011;56792;50.644;17.984;2023-05-10T02:24:30;9.00;;;4.50;;
69588;SDS011;56792;50.644;17.984;2023-05-10T02:27:02;10.10;;;4.90;;
69588;SDS011;56792;50.644;17.984;2023-05-10T02:29:32;7.80;;;4.60;;
69588;SDS011;56792;50.644;17.984;2023-05-10T02:32:02;8.40;;;4.90;;
69588;SDS011;56792;50.644;17.984;2023-05-10T02:34:31;7.40;;;4.40;;
69588;SDS011;56792;50.644;17.984;2023-05-10T02:37:00;7.60;;;4.40;;
69588;SDS011;56792;50.644;17.984;2023-05-10T02:39:31;9.60;;;5.30;;
69588;SDS011;56792;50.644;17.984;2023-05-10T02:42:01;10.70;;;5.20;;
69588;SDS011;56792;50.644;17.984;2023-05-10T02:44:30;7.40;;;4.70;;
69588;SDS011;56792;50.644;17.984;2023-05-10T02:46:59;9.60;;;5.00;;
69588;SDS011;56792;50.644;17.984;2023-05-10T02:49:28;10.40;;;5.10;;
69588;SDS011;56792;50.644;17.984;2023-05-10T02:52:00;10.40;;;5.20;;
69588;SDS011;56792;50.644;17.984;2023-05-10T02:54:37;10.70;;;5.40;;
69588;SDS011;56792;50.644;17.984;2023-05-10T02:57:13;9.00;;;5.50;;
69588;SDS011;56792;50.644;17.984;2023-05-10T02:59:45;9.90;;;5.60;;
69588;SDS011;56792;50.644;17.984;2023-05-10T03:02:14;12.20;;;5.80;;
69588;SDS011;56792;50.644;17.984;2023-05-10T03:04:42;10.90;;;5.60;;
69588;SDS011;56792;50.644;17.984;2023-05-10T03:07:10;9.80;;;5.50;;
69588;SDS011;56792;50.644;17.984;2023-05-10T03:09:39;14.60;;;6.30;;
69588;SDS011;56792;50.644;17.984;2023-05-10T03:12:23;11.20;;;6.00;;
69588;SDS011;56792;50.644;17.984;2023-05-10T03:15:06;9.70;;;5.70;;
69588;SDS011;56792;50.644;17.984;2023-05-10T03:17:47;10.50;;;5.80;;
69588;SDS011;56792;50.644;17.984;2023-05-10T03:20:24;10.50;;;5.70;;
69588;SDS011;56792;50.644;17.984;2023-05-10T03:23:02;11.40;;;5.50;;
69588;SDS011;56792;50.644;17.984;2023-05-10T03:25:34;11.40;;;5.90;;
69588;SDS011;56792;50.644;17.984;2023-05-10T03:28:05;12.10;;;6.40;;
69588;SDS011;56792;50.644;17.984;2023-05-10T03:30:34;10.20;;;6.40;;
69588;SDS011;56792;50.644;17.984;2023-05-10T03:33:05;11.40;;;6.50;;
69588;SDS011;56792;50.644;17.984;2023-05-10T03:35:35;11.30;;;6.60;;
69588;SDS011;56792;50.644;17.984;2023-05-10T03:38:04;12.00;;;6.40;;
69588;SDS011;56792;50.644;17.984;2023-05-10T03:40:32;12.00;;;6.70;;
69588;SDS011;56792;50.644;17.984;2023-05-10T03:43:00;14.80;;;6.90;;
69588;SDS011;56792;50.644;17.984;2023-05-10T03:45:29;12.40;;;6.30;;
69588;SDS011;56792;50.644;17.984;2023-05-10T03:47:58;10.50;;;6.20;;
69588;SDS011;56792;50.644;17.984;2023-05-10T03:50:26;13.80;;;7.70;;
69588;SDS011;56792;50.644;17.984;2023-05-10T03:52:55;11.50;;;6.60;;
69588;SDS011;56792;50.644;17.984;2023-05-10T03:55:24;14.20;;;6.90;;
69588;SDS011;56792;50.644;17.984;2023-05-10T03:57:52;12.80;;;7.00;;
69588;SDS011;56792;50.644;17.984;2023-05-10T04:00:22;11.40;;;6.90;;
69588;SDS011;56792;50.644;17.984;2023-05-10T04:02:51;13.30;;;7.00;;
69588;SDS011;56792;50.644;17.984;2023-05-10T04:05:20;12.70;;;6.80;;
69588;SDS011;56792;50.644;17.984;2023-05-10T04:07:48;11.50;;;6.80;;
69588;SDS011;56792;50.644;17.984;2023-05-10T04:10:17;13.90;;;6.90;;
69588;SDS011;56792;50.644;17.984;2023-05-10T04:12:46;13.50;;;6.70;;
69588;SDS011;56792;50.644;17.984;2023-05-10T04:15:14;11.50;;;6.80;;
69588;SDS011;56792;50.644;17.984;2023-05-10T04:17:42;13.00;;;7.90;;
69588;SDS011;56792;50.644;17.984;2023-05-10T04:20:12;12.40;;;6.50;;
69588;SDS011;56792;50.644;17.984;2023-05-10T04:22:41;12.90;;;7.00;;
69588;SDS011;56792;50.644;17.984;2023-05-10T04:25:10;13.80;;;7.10;;
69588;SDS011;56792;50.644;17.984;2023-05-10T04:27:38;11.80;;;6.40;;
69588;SDS011;56792;50.644;17.984;2023-05-10T04:30:08;14.30;;;7.20;;
69588;SDS011;56792;50.644;17.984;2023-05-10T04:32:37;12.40;;;6.90;;
69588;SDS011;56792;50.644;17.984;2023-05-10T04:35:07;11.90;;;7.30;;
69588;SDS011;56792;50.644;17.984;2023-05-10T04:37:36;14.10;;;7.50;;
69588;SDS011;56792;50.644;17.984;2023-05-10T04:40:07;13.10;;;7.30;;
69588;SDS011;56792;50.644;17.984;2023-05-10T04:42:36;10.00;;;6.30;;
69588;SDS011;56792;50.644;17.984;2023-05-10T04:45:09;12.30;;;6.80;;
69588;SDS011;56792;50.644;17.984;2023-05-10T04:47:37;13.20;;;6.90;;
69588;SDS011;56792;50.644;17.984;2023-05-10T04:50:08;10.90;;;6.40;;
69588;SDS011;56792;50.644;17.984;2023-05-10T04:52:36;12.30;;;6.50;;
69588;SDS011;56792;50.644;17.984;2023-05-10T04:55:05;12.20;;;6.90;;
69588;SDS011;56792;50.644;17.984;2023-05-10T04:57:36;11.40;;;5.80;;
69588;SDS011;56792;50.644;17.984;2023-05-10T05:00:06;12.20;;;6.70;;
69588;SDS011;56792;50.644;17.984;2023-05-10T05:02:36;12.80;;;6.60;;
69588;SDS011;56792;50.644;17.984;2023-05-10T05:05:05;12.50;;;6.50;;
69588;SDS011;56792;50.644;17.984;2023-05-10T05:07:34;11.20;;;6.30;;
69588;SDS011;56792;50.644;17.984;2023-05-10T05:10:03;12.80;;;5.70;;
69588;SDS011;56792;50.644;17.984;2023-05-10T05:12:32;11.20;;;6.20;;
69588;SDS011;56792;50.644;17.984;2023-05-10T05:15:01;10.20;;;6.30;;
69588;SDS011;56792;50.644;17.984;2023-05-10T05:17:31;13.50;;;7.00;;
69588;SDS011;56792;50.644;17.984;2023-05-10T05:19:59;10.50;;;5.70;;
69588;SDS011;56792;50.644;17.984;2023-05-10T05:22:27;10.80;;;5.90;;
69588;SDS011;56792;50.644;17.984;2023-05-10T05:24:56;10.40;;;6.00;;
69588;SDS011;56792;50.644;17.984;2023-05-10T05:27:25;10.40;;;6.00;;
69588;SDS011;56792;50.644;17.984;2023-05-10T05:29:54;10.30;;;6.10;;
69588;SDS011;56792;50.644;17.984;2023-05-10T05:32:23;9.40;;;5.60;;
69588;SDS011;56792;50.644;17.984;2023-05-10T05:34:52;10.30;;;5.50;;
69588;SDS011;56792;50.644;17.984;2023-05-10T05:37:21;10.80;;;6.30;;
69588;SDS011;56792;50.644;17.984;2023-05-10T05:39:49;11.10;;;5.90;;
69588;SDS011;56792;50.644;17.984;2023-05-10T05:42:18;11.50;;;6.00;;
69588;SDS011;56792;50.644;17.984;2023-05-10T05:44:46;11.60;;;5.90;;
69588;SDS011;56792;50.644;17.984;2023-05-10T05:47:14;9.20;;;5.30;;
69588;SDS011;56792;50.644;17.984;2023-05-10T05:49:42;9.30;;;5.70;;
69588;SDS011;56792;50.644;17.984;2023-05-10T05:52:12;9.20;;;5.20;;
69588;SDS011;56792;50.644;17.984;2023-05-10T05:54:40;9.70;;;4.80;;
69588;SDS011;56792;50.644;17.984;2023-05-10T05:57:09;9.50;;;4.90;;
69588;SDS011;56792;50.644;17.984;2023-05-10T05:59:37;7.00;;;4.40;;
69588;SDS011;56792;50.644;17.984;2023-05-10T06:02:08;11.00;;;5.10;;
69588;SDS011;56792;50.644;17.984;2023-05-10T06:04:37;8.00;;;4.40;;
69588;SDS011;56792;50.644;17.984;2023-05-10T06:07:05;10.00;;;4.80;;
69588;SDS011;56792;50.644;17.984;2023-05-10T06:09:33;9.10;;;4.30;;
69588;SDS011;56792;50.644;17.984;2023-05-10T06:12:02;6.90;;;4.20;;
69588;SDS011;56792;50.644;17.984;2023-05-10T06:14:30;7.90;;;3.90;;
69588;SDS011;56792;50.644;17.984;2023-05-10T06:16:58;8.20;;;4.30;;
69588;SDS011;56792;50.644;17.984;2023-05-10T06:19:27;8.20;;;4.10;;
69588;SDS011;56792;50.644;17.984;2023-05-10T06:21:55;8.00;;;3.80;;
69588;SDS011;56792;50.644;17.984;2023-05-10T06:24:23;8.60;;;3.50;;
69588;SDS011;56792;50.644;17.984;2023-05-10T06:26:52;6.90;;;3.60;;
69588;SDS011;56792;50.644;17.984;2023-05-10T06:29:20;6.40;;;3.70;;
69588;SDS011;56792;50.644;17.984;2023-05-10T06:31:48;5.90;;;3.80;;
69588;SDS011;56792;50.644;17.984;2023-05-10T06:34:17;6.40;;;3.80;;
69588;SDS011;56792;50.644;17.984;2023-05-10T06:36:46;6.80;;;4.40;;
69588;SDS011;56792;50.644;17.984;2023-05-10T06:39:14;7.10;;;4.40;;
69588;SDS011;56792;50.644;17.984;2023-05-10T06:41:43;6.90;;;4.20;;
69588;SDS011;56792;50.644;17.984;2023-05-10T06:44:11;7.90;;;3.50;;
69588;SDS011;56792;50.644;17.984;2023-05-10T06:46:39;7.30;;;3.60;;
69588;SDS011;56792;50.644;17.984;2023-05-10T06:49:08;7.20;;;3.80;;
69588;SDS011;56792;50.644;17.984;2023-05-10T06:51:36;6.20;;;3.70;;
69588;SDS011;56792;50.644;17.984;2023-05-10T06:54:05;7.60;;;4.20;;
69588;SDS011;56792;50.644;17.984;2023-05-10T06:56:33;5.20;;;3.40;;
69588;SDS011;56792;50.644;17.984;2023-05-10T06:59:01;5.10;;;3.00;;
69588;SDS011;56792;50.644;17.984;2023-05-10T07:01:30;5.90;;;3.20;;
69588;SDS011;56792;50.644;17.984;2023-05-10T07:03:58;5.50;;;3.20;;
69588;SDS011;56792;50.644;17.984;2023-05-10T07:06:26;5.50;;;3.10;;
69588;SDS011;56792;50.644;17.984;2023-05-10T07:08:55;6.30;;;3.10;;
69588;SDS011;56792;50.644;17.984;2023-05-10T07:11:23;7.50;;;3.10;;
69588;SDS011;56792;50.644;17.984;2023-05-10T07:13:52;7.10;;;3.30;;
69588;SDS011;56792;50.644;17.984;2023-05-10T07:16:20;7.00;;;3.30;;
69588;SDS011;56792;50.644;17.984;2023-05-10T07:18:48;6.20;;;3.30;;
69588;SDS011;56792;50.644;17.984;2023-05-10T07:21:17;5.70;;;3.10;;
69588;SDS011;56792;50.644;17.984;2023-05-10T07:23:45;4.80;;;3.00;;
69588;SDS011;56792;50.644;17.984;2023-05-10T07:26:13;6.10;;;3.10;;
69588;SDS011;56792;50.644;17.984;2023-05-10T07:28:42;6.00;;;3.00;;
69588;SDS011;56792;50.644;17.984;2023-05-10T07:31:10;5.80;;;3.00;;
69588;SDS011;56792;50.644;17.984;2023-05-10T07:33:39;5.20;;;3.00;;
69588;SDS011;56792;50.644;17.984;2023-05-10T07:36:07;6.10;;;3.10;;
69588;SDS011;56792;50.644;17.984;2023-05-10T07:38:36;5.20;;;2.70;;
69588;SDS011;56792;50.644;17.984;2023-05-10T07:41:04;5.30;;;3.30;;
69588;SDS011;56792;50.644;17.984;2023-05-10T07:43:32;10.20;;;3.50;;
69588;SDS011;56792;50.644;17.984;2023-05-10T07:46:00;6.90;;;3.30;;
69588;SDS011;56792;50.644;17.984;2023-05-10T07:48:28;4.70;;;2.80;;
69588;SDS011;56792;50.644;17.984;2023-05-10T07:50:57;5.10;;;3.30;;
69588;SDS011;56792;50.644;17.984;2023-05-10T07:53:26;4.50;;;2.70;;
69588;SDS011;56792;50.644;17.984;2023-05-10T07:55:56;6.60;;;2.90;;
69588;SDS011;56792;50.644;17.984;2023-05-10T07:58:26;5.30;;;3.30;;
69588;SDS011;56792;50.644;17.984;2023-05-10T08:00:54;6.40;;;2.90;;
69588;SDS011;56792;50.644;17.984;2023-05-10T08:03:23;4.80;;;3.10;;
69588;SDS011;56792;50.644;17.984;2023-05-10T08:05:51;6.50;;;3.40;;
69588;SDS011;56792;50.644;17.984;2023-05-10T08:08:19;5.70;;;3.20;;
69588;SDS011;56792;50.644;17.984;2023-05-10T08:10:49;5.40;;;3.50;;
69588;SDS011;56792;50.644;17.984;2023-05-10T08:13:17;8.20;;;3.30;;
69588;SDS011;56792;50.644;17.984;2023-05-10T08:15:45;5.30;;;3.00;;
69588;SDS011;56792;50.644;17.984;2023-05-10T08:18:14;5.70;;;3.50;;
69588;SDS011;56792;50.644;17.984;2023-05-10T08:20:42;5.70;;;3.90;;
69588;SDS011;56792;50.644;17.984;2023-05-10T08:23:11;7.10;;;3.30;;
69588;SDS011;56792;50.644;17.984;2023-05-10T08:25:40;5.80;;;3.60;;
69588;SDS011;56792;50.644;17.984;2023-05-10T08:28:08;6.40;;;3.60;;
69588;SDS011;56792;50.644;17.984;2023-05-10T08:30:36;5.20;;;3.40;;
69588;SDS011;56792;50.644;17.984;2023-05-10T08:33:04;8.50;;;3.70;;
69588;SDS011;56792;50.644;17.984;2023-05-10T08:35:33;6.50;;;3.50;;
69588;SDS011;56792;50.644;17.984;2023-05-10T08:38:01;5.30;;;3.40;;
69588;SDS011;56792;50.644;17.984;2023-05-10T08:40:29;6.60;;;3.10;;
69588;SDS011;56792;50.644;17.984;2023-05-10T08:43:01;5.10;;;3.30;;
69588;SDS011;56792;50.644;17.984;2023-05-10T08:45:35;6.20;;;3.60;;
69588;SDS011;56792;50.644;17.984;2023-05-10T08:48:07;6.50;;;3.30;;
69588;SDS011;56792;50.644;17.984;2023-05-10T08:50:38;6.80;;;3.30;;
69588;SDS011;56792;50.644;17.984;2023-05-10T08:53:11;4.80;;;3.30;;
69588;SDS011;56792;50.644;17.984;2023-05-10T08:55:41;5.10;;;3.30;;
69588;SDS011;56792;50.644;17.984;2023-05-10T08:58:10;6.20;;;3.70;;
69588;SDS011;56792;50.644;17.984;2023-05-10T09:00:38;5.80;;;3.50;;
69588;SDS011;56792;50.644;17.984;2023-05-10T09:03:07;7.40;;;3.40;;
69588;SDS011;56792;50.644;17.984;2023-05-10T09:05:36;9.00;;;3.30;;
69588;SDS011;56792;50.644;17.984;2023-05-10T09:08:06;5.40;;;3.60;;
69588;SDS011;56792;50.644;17.984;2023-05-10T09:10:36;7.00;;;3.40;;
69588;SDS011;56792;50.644;17.984;2023-05-10T09:13:05;5.00;;;3.10;;
69588;SDS011;56792;50.644;17.984;2023-05-10T09:15:36;5.60;;;3.90;;
69588;SDS011;56792;50.644;17.984;2023-05-10T09:18:04;4.80;;;3.30;;
69588;SDS011;56792;50.644;17.984;2023-05-10T09:20:33;5.90;;;3.80;;
69588;SDS011;56792;50.644;17.984;2023-05-10T09:23:01;5.50;;;3.50;;
69588;SDS011;56792;50.644;17.984;2023-05-10T09:25:29;6.20;;;3.80;;
69588;SDS011;56792;50.644;17.984;2023-05-10T09:28:00;5.80;;;3.90;;
69588;SDS011;56792;50.644;17.984;2023-05-10T09:30:29;4.50;;;2.80;;
69588;SDS011;56792;50.644;17.984;2023-05-10T09:32:58;6.30;;;3.20;;
69588;SDS011;56792;50.644;17.984;2023-05-10T09:35:30;8.00;;;4.20;;
69588;SDS011;56792;50.644;17.984;2023-05-10T09:38:02;6.70;;;4.00;;
69588;SDS011;56792;50.644;17.984;2023-05-10T09:40:32;5.10;;;3.50;;
69588;SDS011;56792;50.644;17.984;2023-05-10T09:43:01;6.90;;;3.10;;
69588;SDS011;56792;50.644;17.984;2023-05-10T09:45:34;5.50;;;3.60;;
69588;SDS011;56792;50.644;17.984;2023-05-10T09:48:04;5.90;;;3.50;;
69588;SDS011;56792;50.644;17.984;2023-05-10T09:50:33;6.30;;;3.50;;
69588;SDS011;56792;50.644;17.984;2023-05-10T09:53:02;6.30;;;3.00;;
69588;SDS011;56792;50.644;17.984;2023-05-10T09:55:40;5.20;;;3.30;;
69588;SDS011;56792;50.644;17.984;2023-05-10T09:58:11;7.70;;;4.20;;
69588;SDS011;56792;50.644;17.984;2023-05-10T10:00:41;5.50;;;3.50;;
69588;SDS011;56792;50.644;17.984;2023-05-10T10:03:14;5.10;;;3.60;;
69588;SDS011;56792;50.644;17.984;2023-05-10T10:05:44;7.00;;;3.40;;
69588;SDS011;56792;50.644;17.984;2023-05-10T10:08:14;5.30;;;3.30;;
69588;SDS011;56792;50.644;17.984;2023-05-10T10:10:43;6.30;;;3.50;;
69588;SDS011;56792;50.644;17.984;2023-05-10T10:13:13;5.50;;;3.60;;
69588;SDS011;56792;50.644;17.984;2023-05-10T10:15:42;5.40;;;2.90;;
69588;SDS011;56792;50.644;17.984;2023-05-10T10:18:13;4.70;;;2.90;;
69588;SDS011;56792;50.644;17.984;2023-05-10T10:20:42;5.30;;;3.40;;
69588;SDS011;56792;50.644;17.984;2023-05-10T10:23:10;5.00;;;3.70;;
69588;SDS011;56792;50.644;17.984;2023-05-10T10:25:39;5.10;;;3.70;;
69588;SDS011;56792;50.644;17.984;2023-05-10T10:28:16;6.00;;;3.20;;
69588;SDS011;56792;50.644;17.984;2023-05-10T10:30:55;5.90;;;3.90;;
69588;SDS011;56792;50.644;17.984;2023-05-10T10:33:40;6.00;;;4.20;;
69588;SDS011;56792;50.644;17.984;2023-05-10T10:36:26;6.10;;;4.80;;
69588;SDS011;56792;50.644;17.984;2023-05-10T10:39:01;8.20;;;5.10;;
69588;SDS011;56792;50.644;17.984;2023-05-10T10:41:37;5.40;;;4.90;;
69588;SDS011;56792;50.644;17.984;2023-05-10T10:44:39;6.90;;;5.30;;
69588;SDS011;56792;50.644;17.984;2023-05-10T10:47:22;11.10;;;5.50;;
69588;SDS011;56792;50.644;17.984;2023-05-10T10:49:53;8.10;;;5.40;;
69588;SDS011;56792;50.644;17.984;2023-05-10T10:52:34;11.70;;;4.40;;
69588;SDS011;56792;50.644;17.984;2023-05-10T10:55:05;5.50;;;4.90;;
69588;SDS011;56792;50.644;17.984;2023-05-10T10:57:45;5.10;;;4.30;;
69588;SDS011;56792;50.644;17.984;2023-05-10T11:00:26;5.20;;;4.00;;
69588;SDS011;56792;50.644;17.984;2023-05-10T11:02:58;5.60;;;4.10;;
69588;SDS011;56792;50.644;17.984;2023-05-10T11:05:46;6.00;;;3.80;;
69588;SDS011;56792;50.644;17.984;2023-05-10T11:08:20;5.90;;;4.80;;
69588;SDS011;56792;50.644;17.984;2023-05-10T11:11:06;5.90;;;5.10;;
69588;SDS011;56792;50.644;17.984;2023-05-10T11:13:37;5.30;;;3.40;;
69588;SDS011;56792;50.644;17.984;2023-05-10T11:16:17;7.90;;;3.80;;
69588;SDS011;56792;50.644;17.984;2023-05-10T11:18:59;4.50;;;3.20;;
69588;SDS011;56792;50.644;17.984;2023-05-10T11:21:29;4.40;;;4.00;;
69588;SDS011;56792;50.644;17.984;2023-05-10T11:23:58;6.70;;;4.20;;
69588;SDS011;56792;50.644;17.984;2023-05-10T11:26:32;5.80;;;4.20;;
69588;SDS011;56792;50.644;17.984;2023-05-10T11:29:02;4.50;;;3.40;;
69588;SDS011;56792;50.644;17.984;2023-05-10T11:31:31;5.60;;;3.10;;
69588;SDS011;56792;50.644;17.984;2023-05-10T11:34:00;7.60;;;3.00;;
69588;SDS011;56792;50.644;17.984;2023-05-10T11:36:32;5.60;;;3.10;;
69588;SDS011;56792;50.644;17.984;2023-05-10T11:39:01;5.80;;;3.30;;
69588;SDS011;56792;50.644;17.984;2023-05-10T11:41:31;6.70;;;3.30;;
69588;SDS011;56792;50.644;17.984;2023-05-10T11:43:59;4.40;;;3.20;;
69588;SDS011;56792;50.644;17.984;2023-05-10T11:46:29;4.10;;;3.10;;
69588;SDS011;56792;50.644;17.984;2023-05-10T11:48:59;5.90;;;3.20;;
69588;SDS011;56792;50.644;17.984;2023-05-10T11:51:33;5.40;;;3.50;;
69588;SDS011;56792;50.644;17.984;2023-05-10T11:54:06;7.50;;;3.00;;
69588;SDS011;56792;50.644;17.984;2023-05-10T11:56:36;7.50;;;3.40;;
69588;SDS011;56792;50.644;17.984;2023-05-10T11:59:05;5.60;;;3.30;;
69588;SDS011;56792;50.644;17.984;2023-05-10T12:01:34;6.00;;;3.00;;
69588;SDS011;56792;50.644;17.984;2023-05-10T12:04:03;6.20;;;2.60;;
69588;SDS011;56792;50.644;17.984;2023-05-10T12:06:34;5.50;;;2.60;;
69588;SDS011;56792;50.644;17.984;2023-05-10T12:09:07;7.30;;;3.10;;
69588;SDS011;56792;50.644;17.984;2023-05-10T12:11:39;5.80;;;2.80;;
69588;SDS011;56792;50.644;17.984;2023-05-10T12:14:08;5.70;;;3.30;;
69588;SDS011;56792;50.644;17.984;2023-05-10T12:16:37;8.20;;;2.70;;
69588;SDS011;56792;50.644;17.984;2023-05-10T12:19:05;7.70;;;3.00;;
69588;SDS011;56792;50.644;17.984;2023-05-10T12:21:33;7.00;;;3.30;;
69588;SDS011;56792;50.644;17.984;2023-05-10T12:24:03;7.10;;;3.40;;
69588;SDS011;56792;50.644;17.984;2023-05-10T12:26:32;4.90;;;3.00;;
69588;SDS011;56792;50.644;17.984;2023-05-10T12:29:15;5.40;;;3.40;;
69588;SDS011;56792;50.644;17.984;2023-05-10T12:31:52;6.00;;;4.50;;
69588;SDS011;56792;50.644;17.984;2023-05-10T12:34:30;7.60;;;3.30;;
69588;SDS011;56792;50.644;17.984;2023-05-10T12:36:59;4.30;;;3.00;;
69588;SDS011;56792;50.644;17.984;2023-05-10T12:39:39;7.20;;;3.50;;
69588;SDS011;56792;50.644;17.984;2023-05-10T12:42:08;5.50;;;3.10;;
69588;SDS011;56792;50.644;17.984;2023-05-10T12:44:37;5.30;;;4.30;;
69588;SDS011;56792;50.644;17.984;2023-05-10T12:47:05;5.40;;;4.20;;
69588;SDS011;56792;50.644;17.984;2023-05-10T12:49:33;6.20;;;4.30;;
69588;SDS011;56792;50.644;17.984;2023-05-10T12:52:02;4.60;;;4.10;;
69588;SDS011;56792;50.644;17.984;2023-05-10T12:54:30;5.90;;;4.80;;
69588;SDS011;56792;50.644;17.984;2023-05-10T12:56:58;6.10;;;4.60;;
69588;SDS011;56792;50.644;17.984;2023-05-10T12:59:27;5.40;;;4.90;;
69588;SDS011;56792;50.644;17.984;2023-05-10T13:01:55;5.70;;;4.90;;
69588;SDS011;56792;50.644;17.984;2023-05-10T13:04:24;5.60;;;4.70;;
69588;SDS011;56792;50.644;17.984;2023-05-10T13:06:52;4.70;;;4.20;;
69588;SDS011;56792;50.644;17.984;2023-05-10T13:09:25;5.60;;;4.00;;
69588;SDS011;56792;50.644;17.984;2023-05-10T13:11:53;7.30;;;3.70;;
69588;SDS011;56792;50.644;17.984;2023-05-10T13:14:22;6.40;;;3.80;;
69588;SDS011;56792;50.644;17.984;2023-05-10T13:16:50;5.10;;;3.80;;
69588;SDS011;56792;50.644;17.984;2023-05-10T13:19:18;4.50;;;3.40;;
69588;SDS011;56792;50.644;17.984;2023-05-10T13:21:47;4.40;;;3.30;;
69588;SDS011;56792;50.644;17.984;2023-05-10T13:24:15;5.00;;;3.50;;
69588;SDS011;56792;50.644;17.984;2023-05-10T13:26:44;5.20;;;2.40;;
69588;SDS011;56792;50.644;17.984;2023-05-10T13:29:12;5.90;;;3.10;;
69588;SDS011;56792;50.644;17.984;2023-05-10T13:31:40;5.70;;;3.10;;
69588;SDS011;56792;50.644;17.984;2023-05-10T13:34:09;5.20;;;3.10;;
69588;SDS011;56792;50.644;17.984;2023-05-10T13:36:37;4.20;;;2.90;;
69588;SDS011;56792;50.644;17.984;2023-05-10T13:39:05;4.90;;;3.00;;
69588;SDS011;56792;50.644;17.984;2023-05-10T13:41:34;4.60;;;3.00;;
69588;SDS011;56792;50.644;17.984;2023-05-10T13:44:03;5.10;;;3.00;;
69588;SDS011;56792;50.644;17.984;2023-05-10T13:46:31;6.00;;;3.30;;
69588;SDS011;56792;50.644;17.984;2023-05-10T13:49:00;4.60;;;3.20;;
69588;SDS011;56792;50.644;17.984;2023-05-10T13:51:28;5.40;;;2.80;;
69588;SDS011;56792;50.644;17.984;2023-05-10T13:53:58;5.90;;;3.10;;
69588;SDS011;56792;50.644;17.984;2023-05-10T13:56:26;6.50;;;2.60;;
69588;SDS011;56792;50.644;17.984;2023-05-10T13:58:55;4.00;;;2.80;;
69588;SDS011;56792;50.644;17.984;2023-05-10T14:01:24;4.90;;;2.90;;
69588;SDS011;56792;50.644;17.984;2023-05-10T14:03:52;5.10;;;3.20;;
69588;SDS011;56792;50.644;17.984;2023-05-10T14:06:21;4.20;;;2.50;;
69588;SDS011;56792;50.644;17.984;2023-05-10T14:08:49;9.20;;;7.70;;
69588;SDS011;56792;50.644;17.984;2023-05-10T14:11:17;4.00;;;2.80;;
69588;SDS011;56792;50.644;17.984;2023-05-10T14:13:46;4.90;;;3.00;;
69588;SDS011;56792;50.644;17.984;2023-05-10T14:16:14;5.50;;;2.50;;
69588;SDS011;56792;50.644;17.984;2023-05-10T14:18:42;4.20;;;2.80;;
69588;SDS011;56792;50.644;17.984;2023-05-10T14:21:11;5.10;;;3.30;;
69588;SDS011;56792;50.644;17.984;2023-05-10T14:23:39;5.60;;;3.20;;
69588;SDS011;56792;50.644;17.984;2023-05-10T14:26:08;6.10;;;5.50;;
69588;SDS011;56792;50.644;17.984;2023-05-10T14:28:36;5.30;;;3.00;;
69588;SDS011;56792;50.644;17.984;2023-05-10T14:31:05;4.30;;;2.90;;
69588;SDS011;56792;50.644;17.984;2023-05-10T14:33:33;6.80;;;3.40;;
69588;SDS011;56792;50.644;17.984;2023-05-10T14:36:01;5.90;;;3.60;;
69588;SDS011;56792;50.644;17.984;2023-05-10T14:38:30;5.50;;;3.30;;
69588;SDS011;56792;50.644;17.984;2023-05-10T14:40:59;5.50;;;2.90;;
69588;SDS011;56792;50.644;17.984;2023-05-10T14:43:28;6.60;;;3.20;;
69588;SDS011;56792;50.644;17.984;2023-05-10T14:45:57;4.40;;;2.80;;
69588;SDS011;56792;50.644;17.984;2023-05-10T14:48:25;5.90;;;3.60;;
69588;SDS011;56792;50.644;17.984;2023-05-10T14:50:54;8.40;;;3.10;;
69588;SDS011;56792;50.644;17.984;2023-05-10T14:53:22;7.80;;;3.30;;